sensor_id;sensor_type;location;lat;lon;timestamp;P1;durP1;ratioP1;P2;durP2;ratioP2
14205;SDS011;7186;48.800;9.216;2022-12-18T00:01:19;62.13;;;27.47;;
14205;SDS011;7186;48.800;9.216;2022-12-18T00:03:44;60.57;;;28.53;;
14205;SDS011;7186;48.800;9.216;2022-12-18T00:06:10;74.33;;;30.03;;
14205;SDS011;7186;48.800;9.216;2022-12-18T00:08:36;60.60;;;27.03;;
14205;SDS011;7186;48.800;9.216;2022-12-18T00:11:05;55.97;;;29.17;;
14205;SDS011;7186;48.800;9.216;2022-12-18T00:13:30;64.70;;;28.60;;
14205;SDS011;7186;48.800;9.216;2022-12-18T00:16:00;60.03;;;28.27;;
14205;SDS011;7186;48.800;9.216;2022-12-18T00:18:26;62.50;;;29.93;;
14205;SDS011;7186;48.800;9.216;2022-12-18T00:20:51;63.77;;;27.57;;
14205;SDS011;7186;48.800;9.216;2022-12-18T00:23:16;71.53;;;29.20;;
14205;SDS011;7186;48.800;9.216;2022-12-18T00:25:41;65.90;;;29.50;;
14205;SDS011;7186;48.800;9.216;2022-12-18T00:28:06;81.17;;;34.43;;
14205;SDS011;7186;48.800;9.216;2022-12-18T00:30:32;75.73;;;30.20;;
14205;SDS011;7186;48.800;9.216;2022-12-18T00:32:57;62.40;;;29.13;;
14205;SDS011;7186;48.800;9.216;2022-12-18T00:35:22;63.17;;;28.53;;
14205;SDS011;7186;48.800;9.216;2022-12-18T00:37:47;60.03;;;27.03;;
14205;SDS011;7186;48.800;9.216;2022-12-18T00:40:13;58.43;;;26.87;;
14205;SDS011;7186;48.800;9.216;2022-12-18T00:42:38;64.47;;;29.00;;
14205;SDS011;7186;48.800;9.216;2022-12-18T00:45:25;65.13;;;27.43;;
14205;SDS011;7186;48.800;9.216;2022-12-18T00:47:51;60.07;;;26.63;;
14205;SDS011;7186;48.800;9.216;2022-12-18T00:50:16;58.17;;;27.10;;
14205;SDS011;7186;48.800;9.216;2022-12-18T00:52:42;61.63;;;26.57;;
14205;SDS011;7186;48.800;9.216;2022-12-18T00:55:07;65.40;;;27.93;;
14205;SDS011;7186;48.800;9.216;2022-12-18T00:57:33;65.87;;;28.60;;
14205;SDS011;7186;48.800;9.216;2022-12-18T00:59:58;73.33;;;29.13;;
14205;SDS011;7186;48.800;9.216;2022-12-18T01:02:24;69.00;;;28.83;;
14205;SDS011;7186;48.800;9.216;2022-12-18T01:04:49;57.00;;;28.30;;
14205;SDS011;7186;48.800;9.216;2022-12-18T01:07:14;61.47;;;25.73;;
14205;SDS011;7186;48.800;9.216;2022-12-18T01:09:39;57.67;;;26.57;;
14205;SDS011;7186;48.800;9.216;2022-12-18T01:12:05;59.60;;;27.70;;
14205;SDS011;7186;48.800;9.216;2022-12-18T01:14:30;58.80;;;27.33;;
14205;SDS011;7186;48.800;9.216;2022-12-18T01:16:55;61.13;;;27.13;;
14205;SDS011;7186;48.800;9.216;2022-12-18T01:19:20;61.53;;;25.63;;
14205;SDS011;7186;48.800;9.216;2022-12-18T01:21:46;58.40;;;27.60;;
14205;SDS011;7186;48.800;9.216;2022-12-18T01:24:11;58.53;;;24.57;;
14205;SDS011;7186;48.800;9.216;2022-12-18T01:26:36;58.57;;;25.57;;
14205;SDS011;7186;48.800;9.216;2022-12-18T01:29:01;60.10;;;22.90;;
14205;SDS011;7186;48.800;9.216;2022-12-18T01:31:28;62.93;;;24.83;;
14205;SDS011;7186;48.800;9.216;2022-12-18T01:33:54;50.60;;;24.00;;
14205;SDS011;7186;48.800;9.216;2022-12-18T01:36:20;54.00;;;24.17;;
14205;SDS011;7186;48.800;9.216;2022-12-18T01:38:46;59.37;;;24.23;;
14205;SDS011;7186;48.800;9.216;2022-12-18T01:41:12;54.67;;;24.13;;
14205;SDS011;7186;48.800;9.216;2022-12-18T01:44:46;60.40;;;25.50;;
14205;SDS011;7186;48.800;9.216;2022-12-18T01:46:32;50.70;;;23.00;;
14205;SDS011;7186;48.800;9.216;2022-12-18T01:48:57;58.40;;;23.07;;
14205;SDS011;7186;48.800;9.216;2022-12-18T01:51:23;58.53;;;23.13;;
14205;SDS011;7186;48.800;9.216;2022-12-18T01:53:48;53.07;;;23.90;;
14205;SDS011;7186;48.800;9.216;2022-12-18T01:56:14;59.00;;;24.57;;
14205;SDS011;7186;48.800;9.216;2022-12-18T02:01:14;55.43;;;23.70;;
14205;SDS011;7186;48.800;9.216;2022-12-18T02:03:43;53.30;;;22.60;;
14205;SDS011;7186;48.800;9.216;2022-12-18T02:06:11;51.63;;;24.23;;
14205;SDS011;7186;48.800;9.216;2022-12-18T02:11:21;46.00;;;22.00;;
14205;SDS011;7186;48.800;9.216;2022-12-18T02:16:18;51.53;;;20.73;;
14205;SDS011;7186;48.800;9.216;2022-12-18T02:18:45;58.10;;;23.13;;
14205;SDS011;7186;48.800;9.216;2022-12-18T02:21:24;57.63;;;24.87;;
14205;SDS011;7186;48.800;9.216;2022-12-18T02:24:01;55.30;;;23.10;;
14205;SDS011;7186;48.800;9.216;2022-12-18T02:26:30;51.60;;;22.67;;
14205;SDS011;7186;48.800;9.216;2022-12-18T02:29:00;49.20;;;23.57;;
14205;SDS011;7186;48.800;9.216;2022-12-18T02:31:28;49.30;;;21.47;;
14205;SDS011;7186;48.800;9.216;2022-12-18T02:33:55;52.33;;;24.10;;
14205;SDS011;7186;48.800;9.216;2022-12-18T02:36:21;42.73;;;21.27;;
14205;SDS011;7186;48.800;9.216;2022-12-18T02:38:47;50.23;;;22.73;;
14205;SDS011;7186;48.800;9.216;2022-12-18T02:41:12;44.27;;;23.03;;
14205;SDS011;7186;48.800;9.216;2022-12-18T02:43:38;48.87;;;22.03;;
14205;SDS011;7186;48.800;9.216;2022-12-18T02:46:25;52.43;;;24.50;;
14205;SDS011;7186;48.800;9.216;2022-12-18T02:48:52;56.37;;;23.10;;
14205;SDS011;7186;48.800;9.216;2022-12-18T02:51:23;55.73;;;24.97;;
14205;SDS011;7186;48.800;9.216;2022-12-18T02:53:57;45.03;;;21.63;;
14205;SDS011;7186;48.800;9.216;2022-12-18T02:56:28;44.80;;;21.73;;
14205;SDS011;7186;48.800;9.216;2022-12-18T02:58:59;47.57;;;20.63;;
14205;SDS011;7186;48.800;9.216;2022-12-18T03:03:51;47.57;;;21.83;;
14205;SDS011;7186;48.800;9.216;2022-12-18T03:06:33;49.97;;;22.20;;
14205;SDS011;7186;48.800;9.216;2022-12-18T03:09:02;52.17;;;20.37;;
14205;SDS011;7186;48.800;9.216;2022-12-18T03:11:30;49.70;;;22.07;;
14205;SDS011;7186;48.800;9.216;2022-12-18T03:14:16;42.37;;;21.07;;
14205;SDS011;7186;48.800;9.216;2022-12-18T03:16:42;47.80;;;21.63;;
14205;SDS011;7186;48.800;9.216;2022-12-18T03:19:09;46.60;;;23.13;;
14205;SDS011;7186;48.800;9.216;2022-12-18T03:21:43;48.33;;;22.50;;
14205;SDS011;7186;48.800;9.216;2022-12-18T03:24:09;53.30;;;24.67;;
14205;SDS011;7186;48.800;9.216;2022-12-18T03:26:35;49.67;;;21.43;;
14205;SDS011;7186;48.800;9.216;2022-12-18T03:29:03;46.57;;;22.33;;
14205;SDS011;7186;48.800;9.216;2022-12-18T03:31:29;44.10;;;21.10;;
14205;SDS011;7186;48.800;9.216;2022-12-18T03:33:57;52.37;;;22.47;;
14205;SDS011;7186;48.800;9.216;2022-12-18T03:36:23;42.80;;;21.60;;
14205;SDS011;7186;48.800;9.216;2022-12-18T03:38:49;42.90;;;20.53;;
14205;SDS011;7186;48.800;9.216;2022-12-18T03:41:26;51.20;;;22.07;;
14205;SDS011;7186;48.800;9.216;2022-12-18T03:44:03;52.63;;;21.83;;
14205;SDS011;7186;48.800;9.216;2022-12-18T03:49:09;43.83;;;21.13;;
14205;SDS011;7186;48.800;9.216;2022-12-18T03:54:13;45.33;;;19.17;;
14205;SDS011;7186;48.800;9.216;2022-12-18T03:56:40;50.40;;;21.17;;
14205;SDS011;7186;48.800;9.216;2022-12-18T03:59:07;39.07;;;18.80;;
14205;SDS011;7186;48.800;9.216;2022-12-18T04:01:33;46.37;;;20.83;;
14205;SDS011;7186;48.800;9.216;2022-12-18T04:03:59;38.13;;;19.17;;
14205;SDS011;7186;48.800;9.216;2022-12-18T04:06:26;50.50;;;21.53;;
14205;SDS011;7186;48.800;9.216;2022-12-18T04:08:51;44.67;;;20.63;;
14205;SDS011;7186;48.800;9.216;2022-12-18T04:11:17;41.23;;;21.17;;
14205;SDS011;7186;48.800;9.216;2022-12-18T04:13:42;38.37;;;20.03;;
14205;SDS011;7186;48.800;9.216;2022-12-18T04:16:07;42.83;;;20.53;;
14205;SDS011;7186;48.800;9.216;2022-12-18T04:18:34;43.90;;;20.03;;
14205;SDS011;7186;48.800;9.216;2022-12-18T04:20:59;38.97;;;19.57;;
14205;SDS011;7186;48.800;9.216;2022-12-18T04:23:24;44.10;;;20.33;;
14205;SDS011;7186;48.800;9.216;2022-12-18T04:25:49;42.87;;;19.07;;
14205;SDS011;7186;48.800;9.216;2022-12-18T04:28:15;46.40;;;19.93;;
14205;SDS011;7186;48.800;9.216;2022-12-18T04:30:40;41.80;;;18.23;;
14205;SDS011;7186;48.800;9.216;2022-12-18T04:33:09;45.70;;;19.90;;
14205;SDS011;7186;48.800;9.216;2022-12-18T04:35:34;44.57;;;19.47;;
14205;SDS011;7186;48.800;9.216;2022-12-18T04:38:00;41.97;;;18.57;;
14205;SDS011;7186;48.800;9.216;2022-12-18T04:40:25;40.07;;;17.83;;
14205;SDS011;7186;48.800;9.216;2022-12-18T04:42:50;41.03;;;19.07;;
14205;SDS011;7186;48.800;9.216;2022-12-18T04:45:15;39.27;;;18.33;;
14205;SDS011;7186;48.800;9.216;2022-12-18T04:47:40;41.03;;;19.40;;
14205;SDS011;7186;48.800;9.216;2022-12-18T04:50:06;42.37;;;19.07;;
14205;SDS011;7186;48.800;9.216;2022-12-18T04:52:31;39.83;;;18.67;;
14205;SDS011;7186;48.800;9.216;2022-12-18T04:54:56;41.17;;;19.20;;
14205;SDS011;7186;48.800;9.216;2022-12-18T04:57:21;41.20;;;19.80;;
14205;SDS011;7186;48.800;9.216;2022-12-18T04:59:47;41.10;;;18.17;;
14205;SDS011;7186;48.800;9.216;2022-12-18T05:02:12;48.37;;;19.77;;
14205;SDS011;7186;48.800;9.216;2022-12-18T05:04:37;40.27;;;19.57;;
14205;SDS011;7186;48.800;9.216;2022-12-18T05:07:02;44.83;;;19.53;;
14205;SDS011;7186;48.800;9.216;2022-12-18T05:09:28;48.57;;;20.73;;
14205;SDS011;7186;48.800;9.216;2022-12-18T05:11:53;39.97;;;18.40;;
14205;SDS011;7186;48.800;9.216;2022-12-18T05:14:18;39.23;;;18.43;;
14205;SDS011;7186;48.800;9.216;2022-12-18T05:16:43;40.67;;;18.13;;
14205;SDS011;7186;48.800;9.216;2022-12-18T05:19:09;39.57;;;19.93;;
14205;SDS011;7186;48.800;9.216;2022-12-18T05:21:34;42.03;;;19.27;;
14205;SDS011;7186;48.800;9.216;2022-12-18T05:23:59;42.70;;;18.83;;
14205;SDS011;7186;48.800;9.216;2022-12-18T05:26:24;38.23;;;17.90;;
14205;SDS011;7186;48.800;9.216;2022-12-18T05:28:50;33.70;;;18.53;;
14205;SDS011;7186;48.800;9.216;2022-12-18T05:31:15;39.80;;;18.40;;
14205;SDS011;7186;48.800;9.216;2022-12-18T05:33:40;34.70;;;17.97;;
14205;SDS011;7186;48.800;9.216;2022-12-18T05:36:06;34.20;;;16.70;;
14205;SDS011;7186;48.800;9.216;2022-12-18T05:38:32;35.40;;;18.73;;
14205;SDS011;7186;48.800;9.216;2022-12-18T05:40:58;29.97;;;15.63;;
14205;SDS011;7186;48.800;9.216;2022-12-18T05:43:24;39.57;;;19.10;;
14205;SDS011;7186;48.800;9.216;2022-12-18T05:45:49;38.07;;;16.80;;
14205;SDS011;7186;48.800;9.216;2022-12-18T05:48:15;36.33;;;16.30;;
14205;SDS011;7186;48.800;9.216;2022-12-18T05:50:41;36.67;;;16.33;;
14205;SDS011;7186;48.800;9.216;2022-12-18T05:53:07;37.10;;;17.87;;
14205;SDS011;7186;48.800;9.216;2022-12-18T05:55:33;34.10;;;16.10;;
14205;SDS011;7186;48.800;9.216;2022-12-18T05:57:59;31.63;;;17.30;;
14205;SDS011;7186;48.800;9.216;2022-12-18T06:00:24;35.70;;;17.10;;
14205;SDS011;7186;48.800;9.216;2022-12-18T06:02:49;39.23;;;17.73;;
14205;SDS011;7186;48.800;9.216;2022-12-18T06:05:14;33.67;;;16.77;;
14205;SDS011;7186;48.800;9.216;2022-12-18T06:07:40;36.43;;;17.67;;
14205;SDS011;7186;48.800;9.216;2022-12-18T06:10:05;34.57;;;17.73;;
14205;SDS011;7186;48.800;9.216;2022-12-18T06:12:31;40.73;;;17.97;;
14205;SDS011;7186;48.800;9.216;2022-12-18T06:14:58;34.63;;;16.30;;
14205;SDS011;7186;48.800;9.216;2022-12-18T06:17:23;36.47;;;16.17;;
14205;SDS011;7186;48.800;9.216;2022-12-18T06:19:52;38.80;;;18.47;;
14205;SDS011;7186;48.800;9.216;2022-12-18T06:22:17;32.07;;;15.27;;
14205;SDS011;7186;48.800;9.216;2022-12-18T06:24:42;29.37;;;15.60;;
14205;SDS011;7186;48.800;9.216;2022-12-18T06:27:07;32.73;;;15.10;;
14205;SDS011;7186;48.800;9.216;2022-12-18T06:29:32;38.63;;;18.33;;
14205;SDS011;7186;48.800;9.216;2022-12-18T06:31:58;34.23;;;16.27;;
14205;SDS011;7186;48.800;9.216;2022-12-18T06:34:23;38.63;;;16.20;;
14205;SDS011;7186;48.800;9.216;2022-12-18T06:36:48;37.20;;;15.67;;
14205;SDS011;7186;48.800;9.216;2022-12-18T06:39:13;34.20;;;15.93;;
14205;SDS011;7186;48.800;9.216;2022-12-18T06:41:38;32.70;;;16.17;;
14205;SDS011;7186;48.800;9.216;2022-12-18T06:44:04;33.30;;;16.47;;
14205;SDS011;7186;48.800;9.216;2022-12-18T06:46:29;34.37;;;16.07;;
14205;SDS011;7186;48.800;9.216;2022-12-18T06:48:54;33.03;;;16.07;;
14205;SDS011;7186;48.800;9.216;2022-12-18T06:51:20;35.50;;;17.23;;
14205;SDS011;7186;48.800;9.216;2022-12-18T06:53:46;32.07;;;14.53;;
14205;SDS011;7186;48.800;9.216;2022-12-18T06:56:11;31.97;;;15.97;;
14205;SDS011;7186;48.800;9.216;2022-12-18T06:58:37;33.07;;;15.23;;
14205;SDS011;7186;48.800;9.216;2022-12-18T07:01:03;39.10;;;16.20;;
14205;SDS011;7186;48.800;9.216;2022-12-18T07:03:28;32.37;;;16.30;;
14205;SDS011;7186;48.800;9.216;2022-12-18T07:05:54;28.77;;;15.03;;
14205;SDS011;7186;48.800;9.216;2022-12-18T07:08:19;31.07;;;15.47;;
14205;SDS011;7186;48.800;9.216;2022-12-18T07:10:44;36.70;;;17.10;;
14205;SDS011;7186;48.800;9.216;2022-12-18T07:13:09;32.13;;;17.00;;
14205;SDS011;7186;48.800;9.216;2022-12-18T07:15:35;30.13;;;15.80;;
14205;SDS011;7186;48.800;9.216;2022-12-18T07:18:00;39.30;;;18.23;;
14205;SDS011;7186;48.800;9.216;2022-12-18T07:20:25;36.50;;;16.60;;
14205;SDS011;7186;48.800;9.216;2022-12-18T07:22:50;34.10;;;15.53;;
14205;SDS011;7186;48.800;9.216;2022-12-18T07:25:15;35.80;;;16.77;;
14205;SDS011;7186;48.800;9.216;2022-12-18T07:27:40;31.50;;;16.70;;
14205;SDS011;7186;48.800;9.216;2022-12-18T07:30:06;36.47;;;15.20;;
14205;SDS011;7186;48.800;9.216;2022-12-18T07:32:31;31.13;;;16.40;;
14205;SDS011;7186;48.800;9.216;2022-12-18T07:34:56;33.63;;;15.87;;
14205;SDS011;7186;48.800;9.216;2022-12-18T07:37:22;36.57;;;17.20;;
14205;SDS011;7186;48.800;9.216;2022-12-18T07:39:47;37.30;;;17.73;;
14205;SDS011;7186;48.800;9.216;2022-12-18T07:42:12;41.03;;;18.27;;
14205;SDS011;7186;48.800;9.216;2022-12-18T07:44:56;29.13;;;15.17;;
14205;SDS011;7186;48.800;9.216;2022-12-18T07:47:21;33.40;;;17.47;;
14205;SDS011;7186;48.800;9.216;2022-12-18T07:49:46;40.00;;;17.40;;
14205;SDS011;7186;48.800;9.216;2022-12-18T07:52:11;37.27;;;17.17;;
14205;SDS011;7186;48.800;9.216;2022-12-18T07:54:37;39.33;;;16.60;;
14205;SDS011;7186;48.800;9.216;2022-12-18T07:57:02;36.80;;;17.10;;
14205;SDS011;7186;48.800;9.216;2022-12-18T07:59:27;39.33;;;18.97;;
14205;SDS011;7186;48.800;9.216;2022-12-18T08:01:53;39.03;;;17.57;;
14205;SDS011;7186;48.800;9.216;2022-12-18T08:04:18;39.57;;;17.97;;
14205;SDS011;7186;48.800;9.216;2022-12-18T08:06:43;35.83;;;18.10;;
14205;SDS011;7186;48.800;9.216;2022-12-18T08:09:09;34.67;;;16.80;;
14205;SDS011;7186;48.800;9.216;2022-12-18T08:11:34;38.67;;;17.17;;
14205;SDS011;7186;48.800;9.216;2022-12-18T08:13:59;35.90;;;18.00;;
14205;SDS011;7186;48.800;9.216;2022-12-18T08:16:25;36.53;;;17.70;;
14205;SDS011;7186;48.800;9.216;2022-12-18T08:18:51;37.10;;;17.40;;
14205;SDS011;7186;48.800;9.216;2022-12-18T08:21:18;40.07;;;17.23;;
14205;SDS011;7186;48.800;9.216;2022-12-18T08:23:44;32.13;;;16.27;;
14205;SDS011;7186;48.800;9.216;2022-12-18T08:26:12;38.50;;;17.43;;
14205;SDS011;7186;48.800;9.216;2022-12-18T08:28:38;37.47;;;18.50;;
14205;SDS011;7186;48.800;9.216;2022-12-18T08:31:04;36.37;;;17.20;;
14205;SDS011;7186;48.800;9.216;2022-12-18T08:33:29;33.63;;;17.27;;
14205;SDS011;7186;48.800;9.216;2022-12-18T08:35:54;37.93;;;16.90;;
14205;SDS011;7186;48.800;9.216;2022-12-18T08:38:19;38.63;;;18.97;;
14205;SDS011;7186;48.800;9.216;2022-12-18T08:40:45;35.87;;;15.97;;
14205;SDS011;7186;48.800;9.216;2022-12-18T08:43:10;35.53;;;18.17;;
14205;SDS011;7186;48.800;9.216;2022-12-18T08:45:54;37.50;;;17.07;;
14205;SDS011;7186;48.800;9.216;2022-12-18T08:48:19;40.37;;;18.70;;
14205;SDS011;7186;48.800;9.216;2022-12-18T08:50:53;34.30;;;17.33;;
14205;SDS011;7186;48.800;9.216;2022-12-18T08:53:18;36.43;;;18.77;;
14205;SDS011;7186;48.800;9.216;2022-12-18T08:55:43;38.57;;;18.03;;
14205;SDS011;7186;48.800;9.216;2022-12-18T08:58:08;39.57;;;19.20;;
14205;SDS011;7186;48.800;9.216;2022-12-18T09:00:34;32.47;;;17.70;;
14205;SDS011;7186;48.800;9.216;2022-12-18T09:02:59;39.23;;;18.37;;
14205;SDS011;7186;48.800;9.216;2022-12-18T09:05:24;35.13;;;18.83;;
14205;SDS011;7186;48.800;9.216;2022-12-18T09:07:49;48.97;;;24.77;;
14205;SDS011;7186;48.800;9.216;2022-12-18T09:10:14;34.70;;;19.07;;
14205;SDS011;7186;48.800;9.216;2022-12-18T09:12:40;41.47;;;20.43;;
14205;SDS011;7186;48.800;9.216;2022-12-18T09:15:05;37.30;;;19.33;;
14205;SDS011;7186;48.800;9.216;2022-12-18T09:17:30;34.63;;;18.93;;
14205;SDS011;7186;48.800;9.216;2022-12-18T09:19:55;33.37;;;18.27;;
14205;SDS011;7186;48.800;9.216;2022-12-18T09:22:21;34.77;;;19.70;;
14205;SDS011;7186;48.800;9.216;2022-12-18T09:24:46;39.60;;;20.40;;
14205;SDS011;7186;48.800;9.216;2022-12-18T09:27:13;40.90;;;19.93;;
14205;SDS011;7186;48.800;9.216;2022-12-18T09:29:38;37.37;;;18.87;;
14205;SDS011;7186;48.800;9.216;2022-12-18T09:32:03;35.73;;;20.00;;
14205;SDS011;7186;48.800;9.216;2022-12-18T09:34:29;32.87;;;19.23;;
14205;SDS011;7186;48.800;9.216;2022-12-18T09:36:55;32.53;;;18.90;;
14205;SDS011;7186;48.800;9.216;2022-12-18T09:39:20;39.03;;;20.33;;
14205;SDS011;7186;48.800;9.216;2022-12-18T09:41:46;34.07;;;19.30;;
14205;SDS011;7186;48.800;9.216;2022-12-18T09:46:54;36.60;;;19.87;;
14205;SDS011;7186;48.800;9.216;2022-12-18T09:49:22;36.27;;;19.10;;
14205;SDS011;7186;48.800;9.216;2022-12-18T09:51:59;33.43;;;19.83;;
14205;SDS011;7186;48.800;9.216;2022-12-18T09:54:29;37.03;;;20.77;;
14205;SDS011;7186;48.800;9.216;2022-12-18T09:56:56;34.83;;;19.87;;
14205;SDS011;7186;48.800;9.216;2022-12-18T09:59:33;34.83;;;19.77;;
14205;SDS011;7186;48.800;9.216;2022-12-18T10:01:59;37.40;;;19.97;;
14205;SDS011;7186;48.800;9.216;2022-12-18T10:04:24;40.03;;;22.07;;
14205;SDS011;7186;48.800;9.216;2022-12-18T10:06:59;33.83;;;19.63;;
14205;SDS011;7186;48.800;9.216;2022-12-18T10:09:33;33.37;;;20.10;;
14205;SDS011;7186;48.800;9.216;2022-12-18T10:24:44;35.17;;;19.93;;
14205;SDS011;7186;48.800;9.216;2022-12-18T10:27:14;39.80;;;22.07;;
14205;SDS011;7186;48.800;9.216;2022-12-18T10:29:41;37.83;;;20.50;;
14205;SDS011;7186;48.800;9.216;2022-12-18T10:32:06;41.57;;;20.37;;
14205;SDS011;7186;48.800;9.216;2022-12-18T10:34:32;40.63;;;20.73;;
14205;SDS011;7186;48.800;9.216;2022-12-18T10:36:57;43.57;;;22.63;;
14205;SDS011;7186;48.800;9.216;2022-12-18T10:39:24;35.07;;;20.90;;
14205;SDS011;7186;48.800;9.216;2022-12-18T10:41:51;36.83;;;19.83;;
14205;SDS011;7186;48.800;9.216;2022-12-18T10:44:23;39.90;;;20.33;;
14205;SDS011;7186;48.800;9.216;2022-12-18T10:46:49;44.57;;;20.23;;
14205;SDS011;7186;48.800;9.216;2022-12-18T10:49:22;37.37;;;20.43;;
14205;SDS011;7186;48.800;9.216;2022-12-18T10:51:49;38.63;;;20.97;;
14205;SDS011;7186;48.800;9.216;2022-12-18T10:54:15;38.27;;;19.33;;
14205;SDS011;7186;48.800;9.216;2022-12-18T10:56:41;35.93;;;20.77;;
14205;SDS011;7186;48.800;9.216;2022-12-18T10:59:08;42.40;;;21.10;;
14205;SDS011;7186;48.800;9.216;2022-12-18T11:04:21;38.40;;;20.80;;
14205;SDS011;7186;48.800;9.216;2022-12-18T11:06:53;37.03;;;20.40;;
14205;SDS011;7186;48.800;9.216;2022-12-18T11:09:20;37.97;;;21.37;;
14205;SDS011;7186;48.800;9.216;2022-12-18T11:11:50;44.83;;;21.27;;
14205;SDS011;7186;48.800;9.216;2022-12-18T11:16:48;40.77;;;21.07;;
14205;SDS011;7186;48.800;9.216;2022-12-18T11:21:55;38.90;;;21.17;;
14205;SDS011;7186;48.800;9.216;2022-12-18T11:24:26;38.07;;;20.73;;
14205;SDS011;7186;48.800;9.216;2022-12-18T11:26:52;34.83;;;19.57;;
14205;SDS011;7186;48.800;9.216;2022-12-18T11:29:19;41.60;;;20.17;;
14205;SDS011;7186;48.800;9.216;2022-12-18T11:31:47;37.07;;;19.33;;
14205;SDS011;7186;48.800;9.216;2022-12-18T11:34:14;37.17;;;18.70;;
14205;SDS011;7186;48.800;9.216;2022-12-18T11:36:43;32.83;;;17.53;;
14205;SDS011;7186;48.800;9.216;2022-12-18T11:39:12;35.93;;;17.40;;
14205;SDS011;7186;48.800;9.216;2022-12-18T11:41:47;33.97;;;17.37;;
14205;SDS011;7186;48.800;9.216;2022-12-18T11:44:37;35.63;;;17.73;;
14205;SDS011;7186;48.800;9.216;2022-12-18T11:47:04;34.97;;;18.87;;
14205;SDS011;7186;48.800;9.216;2022-12-18T11:49:34;36.93;;;19.00;;
14205;SDS011;7186;48.800;9.216;2022-12-18T11:54:40;37.47;;;18.53;;
14205;SDS011;7186;48.800;9.216;2022-12-18T11:59:55;39.87;;;20.57;;
14205;SDS011;7186;48.800;9.216;2022-12-18T12:07:48;38.17;;;19.87;;
14205;SDS011;7186;48.800;9.216;2022-12-18T12:12:55;42.13;;;19.83;;
14205;SDS011;7186;48.800;9.216;2022-12-18T12:15:34;37.37;;;19.47;;
14205;SDS011;7186;48.800;9.216;2022-12-18T12:23:35;37.83;;;19.07;;
14205;SDS011;7186;48.800;9.216;2022-12-18T12:26:12;36.10;;;18.53;;
14205;SDS011;7186;48.800;9.216;2022-12-18T12:38:42;40.77;;;19.73;;
14205;SDS011;7186;48.800;9.216;2022-12-18T12:41:09;40.57;;;19.27;;
14205;SDS011;7186;48.800;9.216;2022-12-18T12:43:57;40.27;;;20.53;;
14205;SDS011;7186;48.800;9.216;2022-12-18T12:46:23;43.33;;;19.20;;
14205;SDS011;7186;48.800;9.216;2022-12-18T12:48:51;40.13;;;18.57;;
14205;SDS011;7186;48.800;9.216;2022-12-18T12:51:32;38.63;;;17.67;;
14205;SDS011;7186;48.800;9.216;2022-12-18T12:53:57;37.97;;;18.77;;
14205;SDS011;7186;48.800;9.216;2022-12-18T12:56:24;36.23;;;18.37;;
14205;SDS011;7186;48.800;9.216;2022-12-18T13:06:33;39.83;;;18.80;;
14205;SDS011;7186;48.800;9.216;2022-12-18T13:09:01;36.80;;;19.80;;
14205;SDS011;7186;48.800;9.216;2022-12-18T13:11:37;42.53;;;19.53;;
14205;SDS011;7186;48.800;9.216;2022-12-18T13:14:29;41.97;;;19.13;;
14205;SDS011;7186;48.800;9.216;2022-12-18T13:19:38;35.07;;;18.57;;
14205;SDS011;7186;48.800;9.216;2022-12-18T13:22:04;40.67;;;19.67;;
14205;SDS011;7186;48.800;9.216;2022-12-18T13:24:30;40.17;;;20.07;;
14205;SDS011;7186;48.800;9.216;2022-12-18T13:26:55;36.47;;;18.27;;
14205;SDS011;7186;48.800;9.216;2022-12-18T13:29:39;41.93;;;17.17;;
14205;SDS011;7186;48.800;9.216;2022-12-18T13:32:10;33.30;;;16.90;;
14205;SDS011;7186;48.800;9.216;2022-12-18T13:34:43;37.80;;;17.77;;
14205;SDS011;7186;48.800;9.216;2022-12-18T13:37:51;33.83;;;17.27;;
14205;SDS011;7186;48.800;9.216;2022-12-18T13:39:57;37.83;;;18.77;;
14205;SDS011;7186;48.800;9.216;2022-12-18T13:45:34;37.57;;;17.50;;
14205;SDS011;7186;48.800;9.216;2022-12-18T13:48:00;35.80;;;17.60;;
14205;SDS011;7186;48.800;9.216;2022-12-18T13:50:25;40.87;;;18.10;;
14205;SDS011;7186;48.800;9.216;2022-12-18T13:52:51;39.20;;;18.47;;
14205;SDS011;7186;48.800;9.216;2022-12-18T13:55:17;37.47;;;17.93;;
14205;SDS011;7186;48.800;9.216;2022-12-18T13:57:43;39.00;;;19.27;;
14205;SDS011;7186;48.800;9.216;2022-12-18T14:00:51;41.63;;;17.90;;
14205;SDS011;7186;48.800;9.216;2022-12-18T14:02:57;37.40;;;17.63;;
14205;SDS011;7186;48.800;9.216;2022-12-18T14:05:27;37.53;;;18.57;;
14205;SDS011;7186;48.800;9.216;2022-12-18T14:07:53;38.27;;;18.33;;
14205;SDS011;7186;48.800;9.216;2022-12-18T14:10:18;37.70;;;18.43;;
14205;SDS011;7186;48.800;9.216;2022-12-18T14:12:45;39.33;;;19.63;;
14205;SDS011;7186;48.800;9.216;2022-12-18T14:17:55;45.93;;;18.70;;
14205;SDS011;7186;48.800;9.216;2022-12-18T14:20:22;38.40;;;18.60;;
14205;SDS011;7186;48.800;9.216;2022-12-18T14:22:48;39.07;;;19.83;;
14205;SDS011;7186;48.800;9.216;2022-12-18T14:25:15;42.77;;;20.13;;
14205;SDS011;7186;48.800;9.216;2022-12-18T14:27:45;40.73;;;18.67;;
14205;SDS011;7186;48.800;9.216;2022-12-18T14:30:23;40.83;;;19.53;;
14205;SDS011;7186;48.800;9.216;2022-12-18T14:35:29;38.53;;;19.00;;
14205;SDS011;7186;48.800;9.216;2022-12-18T14:38:08;35.30;;;18.23;;
14205;SDS011;7186;48.800;9.216;2022-12-18T14:40:33;41.13;;;19.17;;
14205;SDS011;7186;48.800;9.216;2022-12-18T14:42:59;41.10;;;19.07;;
14205;SDS011;7186;48.800;9.216;2022-12-18T14:45:37;38.80;;;18.63;;
14205;SDS011;7186;48.800;9.216;2022-12-18T14:48:22;41.30;;;19.53;;
14205;SDS011;7186;48.800;9.216;2022-12-18T14:50:55;41.43;;;20.27;;
14205;SDS011;7186;48.800;9.216;2022-12-18T14:53:22;43.47;;;19.93;;
14205;SDS011;7186;48.800;9.216;2022-12-18T14:55:48;44.00;;;19.70;;
14205;SDS011;7186;48.800;9.216;2022-12-18T14:58:15;39.37;;;19.83;;
14205;SDS011;7186;48.800;9.216;2022-12-18T15:00:41;41.03;;;20.00;;
14205;SDS011;7186;48.800;9.216;2022-12-18T15:03:06;44.27;;;20.10;;
14205;SDS011;7186;48.800;9.216;2022-12-18T15:05:32;43.50;;;19.00;;
14205;SDS011;7186;48.800;9.216;2022-12-18T15:07:58;42.13;;;20.23;;
14205;SDS011;7186;48.800;9.216;2022-12-18T15:18:01;41.10;;;21.03;;
14205;SDS011;7186;48.800;9.216;2022-12-18T15:20:27;41.10;;;18.87;;
14205;SDS011;7186;48.800;9.216;2022-12-18T15:22:52;43.17;;;19.37;;
14205;SDS011;7186;48.800;9.216;2022-12-18T15:27:48;42.37;;;19.13;;
14205;SDS011;7186;48.800;9.216;2022-12-18T15:32:39;41.23;;;19.60;;
14205;SDS011;7186;48.800;9.216;2022-12-18T15:37:36;38.40;;;18.73;;
14205;SDS011;7186;48.800;9.216;2022-12-18T15:40:02;42.87;;;19.70;;
14205;SDS011;7186;48.800;9.216;2022-12-18T15:42:28;43.87;;;19.93;;
14205;SDS011;7186;48.800;9.216;2022-12-18T15:45:12;44.63;;;21.13;;
14205;SDS011;7186;48.800;9.216;2022-12-18T15:47:38;45.77;;;20.93;;
14205;SDS011;7186;48.800;9.216;2022-12-18T15:50:03;39.33;;;18.93;;
14205;SDS011;7186;48.800;9.216;2022-12-18T15:52:28;41.60;;;18.63;;
14205;SDS011;7186;48.800;9.216;2022-12-18T15:54:54;41.97;;;20.90;;
14205;SDS011;7186;48.800;9.216;2022-12-18T15:57:37;39.70;;;19.47;;
14205;SDS011;7186;48.800;9.216;2022-12-18T16:00:03;44.60;;;20.13;;
14205;SDS011;7186;48.800;9.216;2022-12-18T16:02:28;44.07;;;19.40;;
14205;SDS011;7186;48.800;9.216;2022-12-18T16:04:53;43.73;;;20.00;;
14205;SDS011;7186;48.800;9.216;2022-12-18T16:07:19;38.47;;;18.90;;
14205;SDS011;7186;48.800;9.216;2022-12-18T16:09:44;39.13;;;20.40;;
14205;SDS011;7186;48.800;9.216;2022-12-18T16:12:14;43.73;;;19.87;;
14205;SDS011;7186;48.800;9.216;2022-12-18T16:14:40;40.93;;;20.60;;
14205;SDS011;7186;48.800;9.216;2022-12-18T16:17:06;40.20;;;20.57;;